createdAt,value
2024-01-21T00:01:39.313Z,47.09
2024-01-21T00:04:08.613Z,46.52
2024-01-21T00:06:35.968Z,48.07
2024-01-21T00:09:03.028Z,48.80
2024-01-21T00:11:30.181Z,47.62
2024-01-21T00:13:57.291Z,48.15
2024-01-21T00:16:24.570Z,48.64
2024-01-21T00:18:51.879Z,48.45
2024-01-21T00:21:19.068Z,49.16
2024-01-21T00:23:47.920Z,49.41
2024-01-21T00:26:14.915Z,49.79
2024-01-21T00:28:42.211Z,49.07
2024-01-21T00:31:09.462Z,49.42
2024-01-21T00:33:36.851Z,49.43
2024-01-21T00:36:04.130Z,48.42
2024-01-21T00:38:31.061Z,48.46
2024-01-21T00:40:57.939Z,48.69
2024-01-21T00:43:24.880Z,48.88
2024-01-21T00:45:53.439Z,49.17
2024-01-21T00:48:20.716Z,49.35
2024-01-21T00:50:47.728Z,48.72
2024-01-21T00:53:15.561Z,49.37
2024-01-21T00:55:42.575Z,49.49
2024-01-21T00:58:09.597Z,50.64
2024-01-21T01:00:36.868Z,50.49
2024-01-21T01:03:05.553Z,50.78
2024-01-21T01:05:32.894Z,50.43
2024-01-21T01:08:00.021Z,50.20
2024-01-21T01:10:27.146Z,50.64
2024-01-21T01:12:54.282Z,50.48
2024-01-21T01:15:21.398Z,51.19
2024-01-21T01:17:52.998Z,51.26
2024-01-21T01:20:20.873Z,51.26
2024-01-21T01:22:47.929Z,51.11
2024-01-21T01:25:15.128Z,51.15
2024-01-21T01:27:42.215Z,51.65
2024-01-21T01:30:09.925Z,50.97
2024-01-21T01:32:36.909Z,50.63
2024-01-21T01:35:06.410Z,50.01
2024-01-21T01:37:33.635Z,51.11
2024-01-21T01:40:00.707Z,50.64
2024-01-21T01:42:27.791Z,50.21
2024-01-21T01:44:54.961Z,50.19
2024-01-21T01:47:22.003Z,50.01
2024-01-21T01:49:49.188Z,50.71
2024-01-21T01:52:17.485Z,50.87
2024-01-21T01:54:47.632Z,50.75
2024-01-21T01:57:16.910Z,51.01
2024-01-21T01:59:43.910Z,50.65
2024-01-21T02:02:12.108Z,51.31
2024-01-21T02:04:39.364Z,51.49
2024-01-21T02:07:06.777Z,52.18
2024-01-21T02:09:33.816Z,53.45
2024-01-21T02:12:00.972Z,53.25
2024-01-21T02:14:28.066Z,53.68
2024-01-21T02:16:55.152Z,54.55
2024-01-21T02:19:28.199Z,53.75
2024-01-21T02:21:56.553Z,53.78
2024-01-21T02:24:32.753Z,54.75
2024-01-21T02:27:00.161Z,54.95
2024-01-21T02:29:27.536Z,53.75
2024-01-21T02:31:56.124Z,53.85
2024-01-21T02:34:23.103Z,54.31
2024-01-21T02:36:50.151Z,55.14
2024-01-21T02:39:17.498Z,54.44
2024-01-21T02:41:44.451Z,54.24
2024-01-21T02:44:11.412Z,54.60
2024-01-21T02:46:38.432Z,54.35
2024-01-21T02:49:05.459Z,54.40
2024-01-21T02:51:32.589Z,54.17
2024-01-21T02:53:59.575Z,53.28
2024-01-21T02:56:30.509Z,53.18
2024-01-21T02:58:57.883Z,53.56
2024-01-21T03:01:24.972Z,53.53
2024-01-21T03:03:52.039Z,53.92
2024-01-21T03:06:19.663Z,54.56
2024-01-21T03:08:47.075Z,53.99
2024-01-21T03:11:14.252Z,54.46
2024-01-21T03:13:41.101Z,55.22
2024-01-21T03:16:08.371Z,54.94
2024-01-21T03:18:40.253Z,54.92
2024-01-21T03:21:11.124Z,54.11
2024-01-21T03:23:38.174Z,54.36
2024-01-21T03:26:05.298Z,54.01
2024-01-21T03:28:32.352Z,54.69
2024-01-21T03:30:59.520Z,54.51
2024-01-21T03:33:27.454Z,54.10
2024-01-21T03:35:54.590Z,54.44
2024-01-21T03:38:22.206Z,54.68
2024-01-21T03:40:49.317Z,54.11
2024-01-21T03:43:16.359Z,54.15
2024-01-21T03:45:43.783Z,53.33
2024-01-21T03:48:11.180Z,54.17
2024-01-21T03:50:38.461Z,53.29
2024-01-21T03:53:05.556Z,53.73
2024-01-21T03:55:32.645Z,54.28
2024-01-21T03:57:59.760Z,54.74
2024-01-21T04:00:26.915Z,54.22
2024-01-21T04:02:54.016Z,53.63
2024-01-21T04:05:21.233Z,53.68
2024-01-21T04:07:48.189Z,53.76
2024-01-21T04:10:15.264Z,53.77
2024-01-21T04:12:42.224Z,53.77
2024-01-21T04:15:09.608Z,53.05
2024-01-21T04:17:36.748Z,53.88
2024-01-21T04:20:04.182Z,52.71
2024-01-21T04:22:34.240Z,52.67
2024-01-21T04:25:01.085Z,53.44
2024-01-21T04:27:28.132Z,52.95
2024-01-21T04:29:55.231Z,52.19
2024-01-21T04:32:22.498Z,52.53
2024-01-21T04:34:49.447Z,52.64
2024-01-21T04:37:16.493Z,53.02
2024-01-21T04:39:43.428Z,52.86
2024-01-21T04:42:10.852Z,51.61
2024-01-21T04:44:37.767Z,52.84
2024-01-21T04:47:04.979Z,52.59
2024-01-21T04:49:31.984Z,51.73
2024-01-21T04:51:59.400Z,51.56
2024-01-21T04:54:26.365Z,51.90
2024-01-21T04:56:53.458Z,51.76
2024-01-21T04:59:20.331Z,51.75
2024-01-21T05:01:50.839Z,51.08
2024-01-21T05:04:17.975Z,50.88
2024-01-21T05:06:45.033Z,51.37
2024-01-21T05:09:12.570Z,51.33
2024-01-21T05:11:39.821Z,50.51
2024-01-21T05:14:06.898Z,50.88
2024-01-21T05:16:34.018Z,51.19
2024-01-21T05:19:01.439Z,49.75
2024-01-21T05:21:28.565Z,50.71
2024-01-21T05:23:56.009Z,49.98
2024-01-21T05:26:23.100Z,49.97
2024-01-21T05:28:50.247Z,50.02
2024-01-21T05:31:17.289Z,49.54
2024-01-21T05:33:44.411Z,50.44
2024-01-21T05:36:11.621Z,49.83
2024-01-21T05:38:38.652Z,49.57
2024-01-21T05:41:05.718Z,49.90
2024-01-21T05:43:32.668Z,49.64
2024-01-21T05:45:59.634Z,49.23
2024-01-21T05:48:26.674Z,50.86
2024-01-21T05:50:53.584Z,51.32
2024-01-21T05:53:20.437Z,52.93
2024-01-21T05:55:48.038Z,53.24
2024-01-21T05:58:17.228Z,52.07
2024-01-21T06:00:44.525Z,52.90
2024-01-21T06:03:11.781Z,54.45
2024-01-21T06:05:38.821Z,54.34
2024-01-21T06:08:06.002Z,55.02
2024-01-21T06:10:32.950Z,54.59
2024-01-21T06:12:59.958Z,54.78
2024-01-21T06:15:26.923Z,55.43
2024-01-21T06:17:54.594Z,55.81
2024-01-21T06:20:21.852Z,54.73
2024-01-21T06:22:48.940Z,55.19
2024-01-21T06:25:16.952Z,55.67
2024-01-21T06:27:44.029Z,56.11
2024-01-21T06:30:18.927Z,56.17
2024-01-21T06:32:53.965Z,56.21
2024-01-21T06:35:28.618Z,56.47
2024-01-21T06:37:55.949Z,56.52
2024-01-21T06:40:22.965Z,56.54
2024-01-21T06:42:50.125Z,57.59
2024-01-21T06:45:17.339Z,60.18
2024-01-21T06:47:44.314Z,59.46
2024-01-21T06:50:11.639Z,60.38
2024-01-21T06:52:38.590Z,59.03
2024-01-21T06:55:06.337Z,58.63
2024-01-21T06:57:33.396Z,57.89
2024-01-21T07:00:00.419Z,59.13
2024-01-21T07:02:27.392Z,62.12
2024-01-21T07:04:54.307Z,63.38
2024-01-21T07:07:21.248Z,64.06
2024-01-21T07:09:48.276Z,60.33
2024-01-21T07:12:15.288Z,59.67
2024-01-21T07:14:42.257Z,58.91
2024-01-21T07:17:09.293Z,58.53
2024-01-21T07:19:36.309Z,61.02
2024-01-21T07:22:04.065Z,60.07
2024-01-21T07:24:31.035Z,60.49
2024-01-21T07:26:58.154Z,58.29
2024-01-21T07:29:25.220Z,61.00
2024-01-21T07:31:53.033Z,60.55
2024-01-21T07:34:20.601Z,60.54
2024-01-21T07:36:47.706Z,63.14
2024-01-21T07:39:14.775Z,63.74
2024-01-21T07:41:41.644Z,63.04
2024-01-21T07:44:08.731Z,63.04
2024-01-21T07:46:35.868Z,61.99
2024-01-21T07:49:03.005Z,63.91
2024-01-21T07:51:30.287Z,64.54
2024-01-21T07:53:57.433Z,64.55
2024-01-21T07:56:24.388Z,65.66
2024-01-21T07:58:51.417Z,68.64
2024-01-21T08:01:23.130Z,70.94
2024-01-21T08:03:50.427Z,68.27
2024-01-21T08:06:19.901Z,67.48
2024-01-21T08:08:47.137Z,67.43
2024-01-21T08:11:14.172Z,62.42
2024-01-21T08:13:41.320Z,64.47
2024-01-21T08:16:08.271Z,66.71
2024-01-21T08:18:38.223Z,66.32
2024-01-21T08:21:05.974Z,66.80
2024-01-21T08:23:32.845Z,68.11
2024-01-21T08:25:59.726Z,69.96
2024-01-21T08:28:26.725Z,68.67
2024-01-21T08:30:55.255Z,67.09
2024-01-21T08:33:22.428Z,66.68
2024-01-21T08:35:49.680Z,62.87
2024-01-21T08:38:16.956Z,57.74
2024-01-21T08:40:44.440Z,56.80
2024-01-21T08:43:11.688Z,57.18
2024-01-21T08:45:39.086Z,55.54
2024-01-21T08:48:06.865Z,51.81
2024-01-21T08:50:33.862Z,50.27
2024-01-21T08:53:01.312Z,51.52
2024-01-21T08:55:28.258Z,48.89
2024-01-21T08:57:55.230Z,45.28
2024-01-21T09:00:22.398Z,43.13
2024-01-21T09:02:49.385Z,42.49
2024-01-21T09:05:16.459Z,40.12
2024-01-21T09:07:43.518Z,38.35
2024-01-21T09:10:10.755Z,35.87
2024-01-21T09:12:38.121Z,37.31
2024-01-21T09:15:06.315Z,38.25
2024-01-21T09:17:33.687Z,39.01
2024-01-21T09:20:00.935Z,39.85
2024-01-21T09:22:27.990Z,42.38
2024-01-21T09:24:55.079Z,43.40
2024-01-21T09:27:22.114Z,44.38
2024-01-21T09:29:49.285Z,41.36
2024-01-21T09:32:16.243Z,39.90
2024-01-21T09:34:45.117Z,37.30
2024-01-21T09:37:12.854Z,33.38
2024-01-21T09:39:45.799Z,30.67
2024-01-21T09:42:15.322Z,31.22
2024-01-21T09:44:42.439Z,31.22
2024-01-21T09:47:11.976Z,34.44
2024-01-21T09:49:39.681Z,35.71
2024-01-21T09:52:07.287Z,40.28
2024-01-21T09:54:34.382Z,36.68
2024-01-21T09:57:02.382Z,34.58
2024-01-21T09:59:30.238Z,35.23
2024-01-21T10:01:57.436Z,35.08
2024-01-21T10:04:25.136Z,32.84
2024-01-21T10:06:53.863Z,32.93
2024-01-21T10:09:25.433Z,31.13
2024-01-21T10:11:58.328Z,30.78
2024-01-21T10:14:29.106Z,34.30
2024-01-21T10:17:00.540Z,36.48
2024-01-21T10:19:33.563Z,31.16
2024-01-21T10:22:17.970Z,28.27
2024-01-21T10:24:47.259Z,29.78
2024-01-21T10:27:15.210Z,28.03
2024-01-21T10:29:44.751Z,28.71
2024-01-21T10:32:13.527Z,31.94
2024-01-21T10:34:45.509Z,30.56
2024-01-21T10:37:17.015Z,31.57
2024-01-21T10:39:49.395Z,31.32
2024-01-21T10:42:17.039Z,28.74
2024-01-21T10:44:48.140Z,30.68
2024-01-21T10:47:17.400Z,25.89
2024-01-21T10:49:47.076Z,25.74
2024-01-21T10:52:15.695Z,23.92
2024-01-21T10:54:45.619Z,24.18
2024-01-21T10:57:12.828Z,22.69
2024-01-21T10:59:40.492Z,21.86
2024-01-21T11:02:10.419Z,22.49
2024-01-21T11:04:37.855Z,23.71
2024-01-21T11:07:07.467Z,25.77
2024-01-21T11:09:37.456Z,25.10
2024-01-21T11:12:04.841Z,28.96
2024-01-21T11:14:42.253Z,27.51
2024-01-21T11:17:13.924Z,26.04
2024-01-21T11:19:54.416Z,24.87
2024-01-21T11:22:27.229Z,26.00
2024-01-21T11:24:57.479Z,24.67
2024-01-21T11:27:27.014Z,24.91
2024-01-21T11:30:02.565Z,26.35
2024-01-21T11:32:32.146Z,24.24
2024-01-21T11:35:10.270Z,24.67
2024-01-21T11:37:38.270Z,26.38
2024-01-21T11:40:07.920Z,25.43
2024-01-21T11:42:36.712Z,28.29
2024-01-21T11:45:04.944Z,27.61
2024-01-21T11:47:33.178Z,28.19
2024-01-21T11:50:02.480Z,27.90
2024-01-21T11:52:29.677Z,27.46
2024-01-21T11:54:56.767Z,27.99
2024-01-21T11:57:23.948Z,25.32
2024-01-21T11:59:51.142Z,26.43
2024-01-21T12:02:18.675Z,27.70
2024-01-21T12:04:48.512Z,30.35
2024-01-21T12:07:16.833Z,29.92
2024-01-21T12:09:44.207Z,28.60
2024-01-21T12:12:11.330Z,28.15
2024-01-21T12:14:39.376Z,29.18
2024-01-21T12:17:06.445Z,27.17
2024-01-21T12:19:33.809Z,28.59
2024-01-21T12:22:01.333Z,29.40
2024-01-21T12:24:28.506Z,28.71
2024-01-21T12:26:58.510Z,27.22
2024-01-21T12:29:26.536Z,27.39
2024-01-21T12:31:53.884Z,28.23
2024-01-21T12:34:21.550Z,28.53
2024-01-21T12:36:51.610Z,29.11
2024-01-21T12:39:23.217Z,29.05
2024-01-21T12:41:50.718Z,28.51
2024-01-21T12:44:17.726Z,27.89
2024-01-21T12:46:46.897Z,27.42
2024-01-21T12:49:14.449Z,26.76
2024-01-21T12:51:44.118Z,27.19
2024-01-21T12:54:11.308Z,27.60
2024-01-21T12:56:38.505Z,28.07
2024-01-21T12:59:05.776Z,27.32
2024-01-21T13:01:33.320Z,25.44
2024-01-21T13:04:00.583Z,26.50
2024-01-21T13:06:28.066Z,28.80
2024-01-21T13:08:55.295Z,28.25
2024-01-21T13:11:22.820Z,27.93
2024-01-21T13:13:49.969Z,26.78
2024-01-21T13:16:17.101Z,27.97
2024-01-21T13:18:44.605Z,28.45
2024-01-21T13:21:13.917Z,27.08
2024-01-21T13:23:41.328Z,28.10
2024-01-21T13:26:09.434Z,28.88
2024-01-21T13:28:55.191Z,29.21
2024-01-21T13:31:22.357Z,28.07
2024-01-21T13:33:49.716Z,28.40
2024-01-21T13:36:17.217Z,28.71
2024-01-21T13:38:45.092Z,29.05
2024-01-21T13:41:12.361Z,28.83
2024-01-21T13:43:40.139Z,30.07
2024-01-21T13:46:09.356Z,30.89
2024-01-21T13:48:36.638Z,28.93
2024-01-21T13:51:05.723Z,30.67
2024-01-21T13:53:33.141Z,31.42
2024-01-21T13:56:00.191Z,29.70
2024-01-21T13:58:27.441Z,31.21
2024-01-21T14:00:54.701Z,32.49
2024-01-21T14:03:21.772Z,32.00
2024-01-21T14:05:49.542Z,32.39
2024-01-21T14:08:16.697Z,32.65
2024-01-21T14:10:43.836Z,32.95
2024-01-21T14:13:10.807Z,32.59
2024-01-21T14:15:38.149Z,32.55
2024-01-21T14:18:06.527Z,31.82
2024-01-21T14:20:33.630Z,34.42
2024-01-21T14:23:00.767Z,34.56
2024-01-21T14:25:41.158Z,35.98
2024-01-21T14:28:08.351Z,36.93
2024-01-21T14:30:36.705Z,36.68
2024-01-21T14:33:05.439Z,37.94
2024-01-21T14:35:33.610Z,37.00
2024-01-21T14:38:01.029Z,37.01
2024-01-21T14:40:28.657Z,37.27
2024-01-21T14:42:56.411Z,38.06
2024-01-21T14:45:23.619Z,38.21
2024-01-21T14:47:51.208Z,37.89
2024-01-21T14:50:18.726Z,38.67
2024-01-21T14:52:47.820Z,39.67
2024-01-21T14:55:15.283Z,39.28
2024-01-21T14:57:45.051Z,39.89
2024-01-21T15:00:13.788Z,39.85
2024-01-21T15:02:41.222Z,39.55
2024-01-21T15:05:08.809Z,39.77
2024-01-21T15:07:37.207Z,40.63
2024-01-21T15:10:06.349Z,40.43
2024-01-21T15:12:34.200Z,40.27
2024-01-21T15:15:06.393Z,41.03
2024-01-21T15:17:33.818Z,40.80
2024-01-21T15:20:00.931Z,41.40
2024-01-21T15:22:27.917Z,40.48
2024-01-21T15:24:54.946Z,40.54
2024-01-21T15:27:22.876Z,41.00
2024-01-21T15:29:49.990Z,41.15
2024-01-21T15:32:17.719Z,41.85
2024-01-21T15:34:44.981Z,42.43
2024-01-21T15:37:12.233Z,41.79
2024-01-21T15:39:39.307Z,42.96
2024-01-21T15:42:08.989Z,43.36
2024-01-21T15:44:36.716Z,42.41
2024-01-21T15:47:03.908Z,43.07
2024-01-21T15:49:31.278Z,42.54
2024-01-21T15:51:58.542Z,42.81
2024-01-21T15:54:26.261Z,42.72
2024-01-21T15:56:53.442Z,43.30
2024-01-21T15:59:20.960Z,43.33
2024-01-21T16:01:48.525Z,43.76
2024-01-21T16:04:15.831Z,43.91
2024-01-21T16:06:43.294Z,44.97
2024-01-21T16:09:10.367Z,44.03
2024-01-21T16:11:37.532Z,44.65
2024-01-21T16:14:05.015Z,43.71
2024-01-21T16:16:32.012Z,43.71
2024-01-21T16:18:59.356Z,44.74
2024-01-21T16:21:26.648Z,44.31
2024-01-21T16:23:53.644Z,44.19
2024-01-21T16:26:20.673Z,43.57
2024-01-21T16:28:47.916Z,44.25
2024-01-21T16:31:14.997Z,43.67
2024-01-21T16:33:42.099Z,44.66
2024-01-21T16:36:09.262Z,44.96
2024-01-21T16:38:36.231Z,45.54
2024-01-21T16:41:03.590Z,46.02
2024-01-21T16:43:30.562Z,45.21
2024-01-21T16:45:57.602Z,45.42
2024-01-21T16:48:27.079Z,45.52
2024-01-21T16:50:57.430Z,45.79
2024-01-21T16:53:30.113Z,45.74
2024-01-21T16:55:57.565Z,46.28
2024-01-21T16:58:24.489Z,46.61
2024-01-21T17:00:54.070Z,45.64
2024-01-21T17:03:22.373Z,46.35
2024-01-21T17:05:49.420Z,46.37
2024-01-21T17:08:16.588Z,46.00
2024-01-21T17:11:14.178Z,46.27
2024-01-21T17:13:41.133Z,46.05
2024-01-21T17:16:08.702Z,46.13
2024-01-21T17:18:42.253Z,46.79
2024-01-21T17:21:09.608Z,46.65
2024-01-21T17:23:36.581Z,46.57
2024-01-21T17:26:04.453Z,46.63
2024-01-21T17:28:31.374Z,46.94
2024-01-21T17:30:58.309Z,47.28
2024-01-21T17:33:27.015Z,47.62
2024-01-21T17:35:54.191Z,48.24
2024-01-21T17:38:21.408Z,48.99
2024-01-21T17:40:48.275Z,48.08
2024-01-21T17:43:15.176Z,47.11
2024-01-21T17:45:42.182Z,47.67
2024-01-21T17:48:09.411Z,48.02
2024-01-21T17:50:36.638Z,46.86
2024-01-21T17:53:03.683Z,48.53
2024-01-21T17:55:30.780Z,47.53
2024-01-21T17:57:57.676Z,47.37
2024-01-21T18:00:24.926Z,47.78
2024-01-21T18:02:52.071Z,47.71
2024-01-21T18:05:19.460Z,47.77
2024-01-21T18:07:46.410Z,47.56
2024-01-21T18:10:14.027Z,48.02
2024-01-21T18:12:40.930Z,48.29
2024-01-21T18:15:08.589Z,46.87
2024-01-21T18:17:35.744Z,46.95
2024-01-21T18:20:03.340Z,48.13
2024-01-21T18:22:32.085Z,47.94
2024-01-21T18:24:59.295Z,48.20
2024-01-21T18:27:26.242Z,48.52
2024-01-21T18:29:53.349Z,48.04
2024-01-21T18:32:24.977Z,47.50
2024-01-21T18:34:52.877Z,47.94
2024-01-21T18:37:20.172Z,47.04
2024-01-21T18:39:47.897Z,47.03
2024-01-21T18:42:14.902Z,47.62
2024-01-21T18:44:41.892Z,47.07
2024-01-21T18:47:08.816Z,47.56
2024-01-21T18:49:36.036Z,47.40
2024-01-21T18:52:08.814Z,47.23
2024-01-21T18:54:36.365Z,47.12
2024-01-21T18:57:03.620Z,46.88
2024-01-21T18:59:30.720Z,46.63
2024-01-21T19:01:57.974Z,46.69
2024-01-21T19:04:29.842Z,46.95
2024-01-21T19:07:02.477Z,45.75
2024-01-21T19:09:30.467Z,46.28
2024-01-21T19:11:57.889Z,46.07
2024-01-21T19:14:24.867Z,46.32
2024-01-21T19:16:51.737Z,47.29
2024-01-21T19:19:19.062Z,46.58
2024-01-21T19:21:46.248Z,47.06
2024-01-21T19:24:13.308Z,47.37
2024-01-21T19:26:42.069Z,48.03
2024-01-21T19:29:09.300Z,48.38
2024-01-21T19:31:36.257Z,49.07
2024-01-21T19:34:03.374Z,48.71
2024-01-21T19:36:30.416Z,49.20
2024-01-21T19:38:57.389Z,49.70
2024-01-21T19:41:24.382Z,49.82
2024-01-21T19:43:55.074Z,50.20
2024-01-21T19:46:22.735Z,50.60
2024-01-21T19:48:51.465Z,51.46
2024-01-21T19:51:20.537Z,51.58
2024-01-21T19:53:47.853Z,52.13
2024-01-21T19:56:15.068Z,51.89
2024-01-21T19:58:42.301Z,52.63
2024-01-21T20:01:09.480Z,52.70
2024-01-21T20:03:36.816Z,53.01
2024-01-21T20:06:04.648Z,53.22
2024-01-21T20:08:31.917Z,53.47
2024-01-21T20:10:58.992Z,53.53
2024-01-21T20:13:25.923Z,54.39
2024-01-21T20:15:52.848Z,54.24
2024-01-21T20:18:19.978Z,54.23
2024-01-21T20:20:48.516Z,54.54
2024-01-21T20:23:15.651Z,54.88
2024-01-21T20:25:42.635Z,55.09
2024-01-21T20:28:09.581Z,55.25
2024-01-21T20:30:36.557Z,54.86
2024-01-21T20:33:03.638Z,54.64
2024-01-21T20:35:31.812Z,54.79
2024-01-21T20:37:58.795Z,55.31
2024-01-21T20:40:27.070Z,54.80
2024-01-21T20:42:53.973Z,54.58
2024-01-21T20:45:21.048Z,54.36
2024-01-21T20:47:48.181Z,54.92
2024-01-21T20:50:15.157Z,54.87
2024-01-21T20:52:42.097Z,54.79
2024-01-21T20:55:09.162Z,54.72
2024-01-21T20:57:36.142Z,55.00
2024-01-21T21:00:03.296Z,55.61
2024-01-21T21:02:30.329Z,55.62
2024-01-21T21:04:57.437Z,55.67
2024-01-21T21:07:24.429Z,55.96
2024-01-21T21:09:51.277Z,55.33
2024-01-21T21:12:18.333Z,55.57
2024-01-21T21:14:47.030Z,55.46
2024-01-21T21:17:14.307Z,55.85
2024-01-21T21:19:43.010Z,56.05
2024-01-21T21:22:10.241Z,56.31
2024-01-21T21:24:37.096Z,56.34
2024-01-21T21:27:04.419Z,56.15
2024-01-21T21:29:31.395Z,56.26
2024-01-21T21:31:58.368Z,56.32
2024-01-21T21:34:25.866Z,56.29
2024-01-21T21:36:53.263Z,56.50
2024-01-21T21:39:22.465Z,56.56
2024-01-21T21:41:49.910Z,57.18
2024-01-21T21:44:16.948Z,56.87
2024-01-21T21:46:44.450Z,57.03
2024-01-21T21:49:12.268Z,56.94
2024-01-21T21:51:39.931Z,57.98
2024-01-21T21:54:07.337Z,57.83
2024-01-21T21:56:34.392Z,57.37
2024-01-21T21:59:02.371Z,58.47
2024-01-21T22:01:32.010Z,58.75
2024-01-21T22:03:59.073Z,58.61
2024-01-21T22:06:26.714Z,58.62
2024-01-21T22:08:54.525Z,58.43
2024-01-21T22:11:22.090Z,58.70
2024-01-21T22:13:49.528Z,58.89
2024-01-21T22:16:17.748Z,59.43
2024-01-21T22:18:45.218Z,59.23
2024-01-21T22:21:20.132Z,59.74
2024-01-21T22:23:47.680Z,59.00
2024-01-21T22:26:15.421Z,59.63
2024-01-21T22:28:42.807Z,60.04
2024-01-21T22:31:09.807Z,60.31
2024-01-21T22:33:37.207Z,59.20
2024-01-21T22:36:04.488Z,59.82
2024-01-21T22:38:31.660Z,60.00
2024-01-21T22:40:59.081Z,60.35
2024-01-21T22:43:26.077Z,59.97
2024-01-21T22:45:53.632Z,60.31
2024-01-21T22:48:20.879Z,59.94
2024-01-21T22:50:48.023Z,59.86
2024-01-21T22:53:14.986Z,60.61
2024-01-21T22:55:41.981Z,60.08
2024-01-21T22:58:08.897Z,59.96
2024-01-21T23:00:35.940Z,60.21
2024-01-21T23:03:03.394Z,60.52
2024-01-21T23:05:30.339Z,60.56
2024-01-21T23:07:57.341Z,60.96
2024-01-21T23:10:24.204Z,60.15
2024-01-21T23:12:51.081Z,60.95
2024-01-21T23:15:18.010Z,60.04
2024-01-21T23:17:45.115Z,60.87
2024-01-21T23:20:13.016Z,61.33
2024-01-21T23:22:39.950Z,60.60
2024-01-21T23:25:07.485Z,60.33
2024-01-21T23:27:34.491Z,60.65
2024-01-21T23:30:01.699Z,61.61
2024-01-21T23:32:28.702Z,60.87
2024-01-21T23:34:55.658Z,60.80
2024-01-21T23:37:23.497Z,60.34
2024-01-21T23:39:50.530Z,60.35
2024-01-21T23:42:17.592Z,59.76
2024-01-21T23:44:44.614Z,60.33
2024-01-21T23:47:11.494Z,60.61
2024-01-21T23:49:43.555Z,60.51
2024-01-21T23:52:10.590Z,60.51
2024-01-21T23:54:42.103Z,60.61
2024-01-21T23:57:09.382Z,60.14
2024-01-21T23:59:36.767Z,60.36
